sensor_id;sensor_type;location;lat;lon;timestamp;P1;durP1;ratioP1;P2;durP2;ratioP2
67063;SDS011;58476;48.072;11.970;2023-03-14T00:00:48;1.73;;;1.10;;
67063;SDS011;58476;48.072;11.970;2023-03-14T00:03:13;1.80;;;1.20;;
67063;SDS011;58476;48.072;11.970;2023-03-14T00:05:39;2.75;;;1.65;;
67063;SDS011;58476;48.072;11.970;2023-03-14T00:08:05;2.17;;;1.25;;
67063;SDS011;58476;48.072;11.970;2023-03-14T00:10:31;1.65;;;0.90;;
67063;SDS011;58476;48.072;11.970;2023-03-14T00:12:57;2.45;;;1.40;;
67063;SDS011;58476;48.072;11.970;2023-03-14T00:15:23;1.55;;;1.10;;
67063;SDS011;58476;48.072;11.970;2023-03-14T00:17:49;3.05;;;1.30;;
67063;SDS011;58476;48.072;11.970;2023-03-14T00:20:15;2.15;;;1.23;;
67063;SDS011;58476;48.072;11.970;2023-03-14T00:22:41;1.15;;;1.02;;
67063;SDS011;58476;48.072;11.970;2023-03-14T00:25:07;2.80;;;1.40;;
67063;SDS011;58476;48.072;11.970;2023-03-14T00:27:35;2.35;;;1.15;;
67063;SDS011;58476;48.072;11.970;2023-03-14T00:30:01;1.80;;;1.23;;
67063;SDS011;58476;48.072;11.970;2023-03-14T00:32:26;1.77;;;1.25;;
67063;SDS011;58476;48.072;11.970;2023-03-14T00:34:52;1.20;;;1.10;;
67063;SDS011;58476;48.072;11.970;2023-03-14T00:37:17;5.72;;;1.17;;
67063;SDS011;58476;48.072;11.970;2023-03-14T00:39:43;1.00;;;1.00;;
67063;SDS011;58476;48.072;11.970;2023-03-14T00:42:08;1.50;;;1.02;;
67063;SDS011;58476;48.072;11.970;2023-03-14T00:44:33;2.17;;;1.13;;
67063;SDS011;58476;48.072;11.970;2023-03-14T00:46:59;1.77;;;1.10;;
67063;SDS011;58476;48.072;11.970;2023-03-14T00:49:24;3.75;;;1.05;;
67063;SDS011;58476;48.072;11.970;2023-03-14T00:51:50;1.30;;;0.98;;
67063;SDS011;58476;48.072;11.970;2023-03-14T00:54:15;1.05;;;1.00;;
67063;SDS011;58476;48.072;11.970;2023-03-14T00:56:41;1.52;;;1.00;;
67063;SDS011;58476;48.072;11.970;2023-03-14T00:59:06;2.25;;;1.10;;
67063;SDS011;58476;48.072;11.970;2023-03-14T01:01:31;2.53;;;1.10;;
67063;SDS011;58476;48.072;11.970;2023-03-14T01:03:57;1.20;;;1.10;;
67063;SDS011;58476;48.072;11.970;2023-03-14T01:06:23;1.13;;;1.02;;
67063;SDS011;58476;48.072;11.970;2023-03-14T01:08:50;5.35;;;1.20;;
67063;SDS011;58476;48.072;11.970;2023-03-14T01:11:23;3.42;;;1.10;;
67063;SDS011;58476;48.072;11.970;2023-03-14T01:13:50;1.05;;;0.80;;
67063;SDS011;58476;48.072;11.970;2023-03-14T01:16:16;1.42;;;1.00;;
67063;SDS011;58476;48.072;11.970;2023-03-14T01:18:43;1.50;;;0.88;;
67063;SDS011;58476;48.072;11.970;2023-03-14T01:21:14;1.10;;;1.00;;
67063;SDS011;58476;48.072;11.970;2023-03-14T01:23:43;1.95;;;1.10;;
67063;SDS011;58476;48.072;11.970;2023-03-14T01:26:09;1.33;;;1.00;;
67063;SDS011;58476;48.072;11.970;2023-03-14T01:28:39;1.10;;;1.10;;
67063;SDS011;58476;48.072;11.970;2023-03-14T01:31:06;1.55;;;1.30;;
67063;SDS011;58476;48.072;11.970;2023-03-14T01:33:33;1.10;;;1.00;;
67063;SDS011;58476;48.072;11.970;2023-03-14T01:35:59;0.93;;;0.90;;
67063;SDS011;58476;48.072;11.970;2023-03-14T01:38:24;1.27;;;1.05;;
67063;SDS011;58476;48.072;11.970;2023-03-14T01:40:50;1.00;;;0.90;;
67063;SDS011;58476;48.072;11.970;2023-03-14T01:43:16;2.78;;;1.48;;
67063;SDS011;58476;48.072;11.970;2023-03-14T01:54:21;1.33;;;0.90;;
67063;SDS011;58476;48.072;11.970;2023-03-14T01:57:11;0.80;;;0.80;;
67063;SDS011;58476;48.072;11.970;2023-03-14T01:59:51;1.08;;;0.90;;
67063;SDS011;58476;48.072;11.970;2023-03-14T02:02:19;0.80;;;0.80;;
67063;SDS011;58476;48.072;11.970;2023-03-14T02:04:45;1.15;;;0.65;;
67063;SDS011;58476;48.072;11.970;2023-03-14T02:07:26;1.92;;;1.13;;
67063;SDS011;58476;48.072;11.970;2023-03-14T02:10:18;1.73;;;1.02;;
67063;SDS011;58476;48.072;11.970;2023-03-14T02:12:47;0.80;;;0.80;;
67063;SDS011;58476;48.072;11.970;2023-03-14T02:15:25;1.02;;;0.93;;
67063;SDS011;58476;48.072;11.970;2023-03-14T02:18:11;0.80;;;0.80;;
67063;SDS011;58476;48.072;11.970;2023-03-14T02:21:00;0.85;;;0.52;;
67063;SDS011;58476;48.072;11.970;2023-03-14T02:29:30;0.80;;;0.80;;
67063;SDS011;58476;48.072;11.970;2023-03-14T02:31:59;2.25;;;1.20;;
67063;SDS011;58476;48.072;11.970;2023-03-14T02:34:25;1.00;;;0.77;;
67063;SDS011;58476;48.072;11.970;2023-03-14T02:36:51;1.38;;;0.88;;
67063;SDS011;58476;48.072;11.970;2023-03-14T02:39:21;1.08;;;0.80;;
67063;SDS011;58476;48.072;11.970;2023-03-14T02:41:51;0.80;;;0.80;;
67063;SDS011;58476;48.072;11.970;2023-03-14T02:44:17;0.60;;;0.60;;
67063;SDS011;58476;48.072;11.970;2023-03-14T02:46:42;1.40;;;0.65;;
67063;SDS011;58476;48.072;11.970;2023-03-14T02:49:08;0.60;;;0.60;;
67063;SDS011;58476;48.072;11.970;2023-03-14T02:51:37;1.58;;;0.80;;
67063;SDS011;58476;48.072;11.970;2023-03-14T02:54:05;0.57;;;0.57;;
67063;SDS011;58476;48.072;11.970;2023-03-14T02:56:30;0.60;;;0.60;;
67063;SDS011;58476;48.072;11.970;2023-03-14T02:58:55;2.28;;;1.80;;
67063;SDS011;58476;48.072;11.970;2023-03-14T03:01:53;0.70;;;0.70;;
67063;SDS011;58476;48.072;11.970;2023-03-14T03:04:18;1.15;;;0.70;;
67063;SDS011;58476;48.072;11.970;2023-03-14T03:06:45;0.70;;;0.70;;
67063;SDS011;58476;48.072;11.970;2023-03-14T03:09:10;0.60;;;0.55;;
67063;SDS011;58476;48.072;11.970;2023-03-14T03:11:36;0.43;;;0.43;;
67063;SDS011;58476;48.072;11.970;2023-03-14T03:14:03;0.65;;;0.60;;
67063;SDS011;58476;48.072;11.970;2023-03-14T03:16:28;0.45;;;0.45;;
67063;SDS011;58476;48.072;11.970;2023-03-14T03:18:53;0.70;;;0.70;;
67063;SDS011;58476;48.072;11.970;2023-03-14T03:21:19;0.60;;;0.60;;
67063;SDS011;58476;48.072;11.970;2023-03-14T03:23:45;0.57;;;0.57;;
67063;SDS011;58476;48.072;11.970;2023-03-14T03:26:10;0.85;;;0.60;;
67063;SDS011;58476;48.072;11.970;2023-03-14T03:28:35;0.40;;;0.40;;
67063;SDS011;58476;48.072;11.970;2023-03-14T03:31:08;0.73;;;0.50;;
67063;SDS011;58476;48.072;11.970;2023-03-14T03:33:35;1.27;;;0.50;;
67063;SDS011;58476;48.072;11.970;2023-03-14T03:36:01;0.47;;;0.47;;
67063;SDS011;58476;48.072;11.970;2023-03-14T03:38:31;0.40;;;0.40;;
67063;SDS011;58476;48.072;11.970;2023-03-14T03:41:01;0.50;;;0.50;;
67063;SDS011;58476;48.072;11.970;2023-03-14T03:43:28;1.77;;;0.30;;
67063;SDS011;58476;48.072;11.970;2023-03-14T03:45:53;0.50;;;0.50;;
67063;SDS011;58476;48.072;11.970;2023-03-14T03:48:21;1.65;;;0.68;;
67063;SDS011;58476;48.072;11.970;2023-03-14T03:50:47;0.93;;;0.45;;
67063;SDS011;58476;48.072;11.970;2023-03-14T03:53:15;0.70;;;0.50;;
67063;SDS011;58476;48.072;11.970;2023-03-14T03:55:41;1.05;;;0.63;;
67063;SDS011;58476;48.072;11.970;2023-03-14T03:58:07;1.85;;;0.77;;
67063;SDS011;58476;48.072;11.970;2023-03-14T04:00:32;0.30;;;0.30;;
67063;SDS011;58476;48.072;11.970;2023-03-14T04:02:58;0.57;;;0.50;;
67063;SDS011;58476;48.072;11.970;2023-03-14T04:05:23;0.85;;;0.40;;
67063;SDS011;58476;48.072;11.970;2023-03-14T04:07:55;0.40;;;0.40;;
67063;SDS011;58476;48.072;11.970;2023-03-14T04:10:24;0.40;;;0.40;;
67063;SDS011;58476;48.072;11.970;2023-03-14T04:13:02;0.55;;;0.50;;
67063;SDS011;58476;48.072;11.970;2023-03-14T04:15:30;0.40;;;0.40;;
67063;SDS011;58476;48.072;11.970;2023-03-14T04:17:58;0.52;;;0.50;;
67063;SDS011;58476;48.072;11.970;2023-03-14T04:20:23;0.22;;;0.22;;
67063;SDS011;58476;48.072;11.970;2023-03-14T04:22:49;0.30;;;0.30;;
67063;SDS011;58476;48.072;11.970;2023-03-14T04:25:14;0.40;;;0.40;;
67063;SDS011;58476;48.072;11.970;2023-03-14T04:27:44;0.35;;;0.35;;
67063;SDS011;58476;48.072;11.970;2023-03-14T04:30:17;0.30;;;0.30;;
67063;SDS011;58476;48.072;11.970;2023-03-14T04:32:55;0.35;;;0.35;;
67063;SDS011;58476;48.072;11.970;2023-03-14T04:35:23;0.32;;;0.30;;
67063;SDS011;58476;48.072;11.970;2023-03-14T04:37:52;0.40;;;0.40;;
67063;SDS011;58476;48.072;11.970;2023-03-14T04:40:19;0.40;;;0.40;;
67063;SDS011;58476;48.072;11.970;2023-03-14T04:42:44;0.40;;;0.40;;
67063;SDS011;58476;48.072;11.970;2023-03-14T04:45:10;0.70;;;0.43;;
67063;SDS011;58476;48.072;11.970;2023-03-14T04:47:37;0.30;;;0.30;;
67063;SDS011;58476;48.072;11.970;2023-03-14T04:50:03;0.22;;;0.22;;
67063;SDS011;58476;48.072;11.970;2023-03-14T04:52:28;0.75;;;0.40;;
67063;SDS011;58476;48.072;11.970;2023-03-14T04:54:55;0.47;;;0.28;;
67063;SDS011;58476;48.072;11.970;2023-03-14T04:57:23;0.52;;;0.40;;
67063;SDS011;58476;48.072;11.970;2023-03-14T04:59:49;0.30;;;0.30;;
67063;SDS011;58476;48.072;11.970;2023-03-14T05:02:34;0.30;;;0.30;;
67063;SDS011;58476;48.072;11.970;2023-03-14T05:05:17;0.20;;;0.20;;
67063;SDS011;58476;48.072;11.970;2023-03-14T05:08:00;0.30;;;0.30;;
67063;SDS011;58476;48.072;11.970;2023-03-14T05:10:40;0.77;;;0.40;;
67063;SDS011;58476;48.072;11.970;2023-03-14T05:13:24;0.77;;;0.30;;
67063;SDS011;58476;48.072;11.970;2023-03-14T05:16:08;0.30;;;0.30;;
67063;SDS011;58476;48.072;11.970;2023-03-14T05:18:44;0.30;;;0.30;;
67063;SDS011;58476;48.072;11.970;2023-03-14T05:21:29;4.95;;;0.30;;
67063;SDS011;58476;48.072;11.970;2023-03-14T05:24:08;1.85;;;0.43;;
67063;SDS011;58476;48.072;11.970;2023-03-14T05:26:57;2.80;;;0.43;;
67063;SDS011;58476;48.072;11.970;2023-03-14T05:29:45;13.40;;;1.15;;
67063;SDS011;58476;48.072;11.970;2023-03-14T05:32:21;15.27;;;0.65;;
67063;SDS011;58476;48.072;11.970;2023-03-14T05:35:07;2.85;;;0.52;;
67063;SDS011;58476;48.072;11.970;2023-03-14T05:37:42;9.50;;;0.88;;
67063;SDS011;58476;48.072;11.970;2023-03-14T05:40:19;3.42;;;0.50;;
67063;SDS011;58476;48.072;11.970;2023-03-14T05:43:08;8.40;;;0.93;;
67063;SDS011;58476;48.072;11.970;2023-03-14T05:45:34;4.35;;;0.63;;
67063;SDS011;58476;48.072;11.970;2023-03-14T05:48:18;7.47;;;0.60;;
67063;SDS011;58476;48.072;11.970;2023-03-14T05:51:09;2.72;;;0.55;;
67063;SDS011;58476;48.072;11.970;2023-03-14T05:53:53;2.92;;;0.57;;
67063;SDS011;58476;48.072;11.970;2023-03-14T05:56:37;1.50;;;0.35;;
67063;SDS011;58476;48.072;11.970;2023-03-14T05:59:11;6.63;;;0.30;;
67063;SDS011;58476;48.072;11.970;2023-03-14T06:01:42;2.55;;;0.38;;
67063;SDS011;58476;48.072;11.970;2023-03-14T06:04:18;5.43;;;0.57;;
67063;SDS011;58476;48.072;11.970;2023-03-14T06:06:48;2.40;;;0.43;;
67063;SDS011;58476;48.072;11.970;2023-03-14T06:09:14;2.17;;;0.98;;
67063;SDS011;58476;48.072;11.970;2023-03-14T06:11:41;3.80;;;0.50;;
67063;SDS011;58476;48.072;11.970;2023-03-14T06:14:07;2.17;;;0.45;;
67063;SDS011;58476;48.072;11.970;2023-03-14T06:16:32;4.68;;;0.60;;
67063;SDS011;58476;48.072;11.970;2023-03-14T06:18:58;9.07;;;0.55;;
67063;SDS011;58476;48.072;11.970;2023-03-14T06:21:24;1.52;;;0.60;;
67063;SDS011;58476;48.072;11.970;2023-03-14T06:23:50;0.50;;;0.20;;
67063;SDS011;58476;48.072;11.970;2023-03-14T06:26:16;1.48;;;0.30;;
67063;SDS011;58476;48.072;11.970;2023-03-14T06:28:42;1.90;;;0.82;;
67063;SDS011;58476;48.072;11.970;2023-03-14T06:31:07;0.65;;;0.38;;
67063;SDS011;58476;48.072;11.970;2023-03-14T06:33:41;6.22;;;0.50;;
67063;SDS011;58476;48.072;11.970;2023-03-14T06:36:07;1.55;;;0.50;;
67063;SDS011;58476;48.072;11.970;2023-03-14T06:38:33;2.72;;;0.30;;
67063;SDS011;58476;48.072;11.970;2023-03-14T06:41:03;1.08;;;0.35;;
67063;SDS011;58476;48.072;11.970;2023-03-14T06:43:34;3.55;;;0.68;;
67063;SDS011;58476;48.072;11.970;2023-03-14T06:45:59;7.35;;;0.60;;
67063;SDS011;58476;48.072;11.970;2023-03-14T06:48:25;2.08;;;0.47;;
67063;SDS011;58476;48.072;11.970;2023-03-14T06:50:52;6.13;;;1.30;;
67063;SDS011;58476;48.072;11.970;2023-03-14T06:53:17;4.95;;;0.50;;
67063;SDS011;58476;48.072;11.970;2023-03-14T06:55:43;5.45;;;0.68;;
67063;SDS011;58476;48.072;11.970;2023-03-14T06:58:09;2.10;;;0.45;;
67063;SDS011;58476;48.072;11.970;2023-03-14T07:00:40;4.95;;;0.50;;
67063;SDS011;58476;48.072;11.970;2023-03-14T07:03:06;6.43;;;0.65;;
67063;SDS011;58476;48.072;11.970;2023-03-14T07:05:36;8.00;;;1.33;;
67063;SDS011;58476;48.072;11.970;2023-03-14T07:08:01;8.13;;;0.82;;
67063;SDS011;58476;48.072;11.970;2023-03-14T07:10:27;4.43;;;0.77;;
67063;SDS011;58476;48.072;11.970;2023-03-14T07:12:52;11.65;;;0.82;;
67063;SDS011;58476;48.072;11.970;2023-03-14T07:15:19;9.10;;;1.38;;
67063;SDS011;58476;48.072;11.970;2023-03-14T07:17:48;11.40;;;1.33;;
67063;SDS011;58476;48.072;11.970;2023-03-14T07:20:14;7.50;;;1.33;;
67063;SDS011;58476;48.072;11.970;2023-03-14T07:22:39;8.90;;;0.77;;
67063;SDS011;58476;48.072;11.970;2023-03-14T07:25:05;13.00;;;1.42;;
67063;SDS011;58476;48.072;11.970;2023-03-14T07:27:31;9.73;;;1.45;;
67063;SDS011;58476;48.072;11.970;2023-03-14T07:29:57;13.88;;;1.20;;
67063;SDS011;58476;48.072;11.970;2023-03-14T07:32:22;19.75;;;2.53;;
67063;SDS011;58476;48.072;11.970;2023-03-14T07:34:47;10.23;;;1.25;;
67063;SDS011;58476;48.072;11.970;2023-03-14T07:37:13;12.57;;;1.23;;
67063;SDS011;58476;48.072;11.970;2023-03-14T07:39:39;17.52;;;1.67;;
67063;SDS011;58476;48.072;11.970;2023-03-14T07:42:13;8.18;;;1.13;;
67063;SDS011;58476;48.072;11.970;2023-03-14T07:45:09;10.02;;;1.33;;
67063;SDS011;58476;48.072;11.970;2023-03-14T07:47:35;10.38;;;0.90;;
67063;SDS011;58476;48.072;11.970;2023-03-14T07:50:00;12.20;;;1.13;;
67063;SDS011;58476;48.072;11.970;2023-03-14T07:52:26;14.18;;;2.15;;
67063;SDS011;58476;48.072;11.970;2023-03-14T07:54:51;9.60;;;1.20;;
67063;SDS011;58476;48.072;11.970;2023-03-14T07:57:16;9.05;;;1.60;;
67063;SDS011;58476;48.072;11.970;2023-03-14T07:59:42;7.38;;;0.95;;
67063;SDS011;58476;48.072;11.970;2023-03-14T08:02:09;7.97;;;1.35;;
67063;SDS011;58476;48.072;11.970;2023-03-14T08:04:36;12.13;;;1.00;;
67063;SDS011;58476;48.072;11.970;2023-03-14T08:07:01;12.20;;;1.33;;
67063;SDS011;58476;48.072;11.970;2023-03-14T08:09:27;13.63;;;2.30;;
67063;SDS011;58476;48.072;11.970;2023-03-14T08:11:52;8.93;;;1.10;;
67063;SDS011;58476;48.072;11.970;2023-03-14T08:14:17;15.30;;;1.27;;
67063;SDS011;58476;48.072;11.970;2023-03-14T08:16:43;10.45;;;1.00;;
67063;SDS011;58476;48.072;11.970;2023-03-14T08:19:08;19.85;;;2.13;;
67063;SDS011;58476;48.072;11.970;2023-03-14T08:21:33;13.70;;;1.73;;
67063;SDS011;58476;48.072;11.970;2023-03-14T08:23:58;12.43;;;1.55;;
67063;SDS011;58476;48.072;11.970;2023-03-14T08:26:24;7.05;;;0.98;;
67063;SDS011;58476;48.072;11.970;2023-03-14T08:28:49;8.48;;;1.15;;
67063;SDS011;58476;48.072;11.970;2023-03-14T08:31:14;11.02;;;1.73;;
67063;SDS011;58476;48.072;11.970;2023-03-14T08:33:40;18.35;;;3.38;;
67063;SDS011;58476;48.072;11.970;2023-03-14T08:36:05;9.68;;;1.60;;
67063;SDS011;58476;48.072;11.970;2023-03-14T08:38:31;13.77;;;2.28;;
67063;SDS011;58476;48.072;11.970;2023-03-14T08:40:57;20.02;;;2.03;;
67063;SDS011;58476;48.072;11.970;2023-03-14T08:43:23;11.70;;;1.80;;
67063;SDS011;58476;48.072;11.970;2023-03-14T08:45:48;21.77;;;2.78;;
67063;SDS011;58476;48.072;11.970;2023-03-14T08:48:13;14.70;;;1.58;;
67063;SDS011;58476;48.072;11.970;2023-03-14T08:50:39;21.92;;;2.92;;
67063;SDS011;58476;48.072;11.970;2023-03-14T08:53:04;7.47;;;1.10;;
67063;SDS011;58476;48.072;11.970;2023-03-14T08:55:29;6.22;;;0.95;;
67063;SDS011;58476;48.072;11.970;2023-03-14T08:57:55;15.20;;;1.20;;
67063;SDS011;58476;48.072;11.970;2023-03-14T09:00:20;8.18;;;1.20;;
67063;SDS011;58476;48.072;11.970;2023-03-14T09:02:46;7.30;;;1.80;;
67063;SDS011;58476;48.072;11.970;2023-03-14T09:05:11;21.15;;;2.00;;
67063;SDS011;58476;48.072;11.970;2023-03-14T09:07:37;20.08;;;2.00;;
67063;SDS011;58476;48.072;11.970;2023-03-14T09:10:03;31.65;;;5.70;;
67063;SDS011;58476;48.072;11.970;2023-03-14T09:12:29;31.98;;;5.53;;
67063;SDS011;58476;48.072;11.970;2023-03-14T09:14:54;31.23;;;3.63;;
67063;SDS011;58476;48.072;11.970;2023-03-14T09:17:20;27.85;;;2.78;;
67063;SDS011;58476;48.072;11.970;2023-03-14T09:19:45;34.05;;;3.33;;
67063;SDS011;58476;48.072;11.970;2023-03-14T09:22:10;31.23;;;4.68;;
67063;SDS011;58476;48.072;11.970;2023-03-14T09:24:36;20.75;;;2.97;;
67063;SDS011;58476;48.072;11.970;2023-03-14T09:27:01;27.77;;;3.38;;
67063;SDS011;58476;48.072;11.970;2023-03-14T09:29:26;19.73;;;2.25;;
67063;SDS011;58476;48.072;11.970;2023-03-14T09:31:52;22.50;;;2.90;;
67063;SDS011;58476;48.072;11.970;2023-03-14T09:34:17;17.55;;;2.40;;
67063;SDS011;58476;48.072;11.970;2023-03-14T09:36:43;26.45;;;2.88;;
67063;SDS011;58476;48.072;11.970;2023-03-14T09:39:08;31.40;;;4.03;;
67063;SDS011;58476;48.072;11.970;2023-03-14T09:41:34;15.30;;;2.40;;
67063;SDS011;58476;48.072;11.970;2023-03-14T09:44:05;22.45;;;3.15;;
67063;SDS011;58476;48.072;11.970;2023-03-14T09:46:44;31.77;;;2.80;;
67063;SDS011;58476;48.072;11.970;2023-03-14T09:49:16;24.45;;;3.42;;
67063;SDS011;58476;48.072;11.970;2023-03-14T09:51:49;22.33;;;3.47;;
67063;SDS011;58476;48.072;11.970;2023-03-14T09:55:00;20.52;;;2.30;;
67063;SDS011;58476;48.072;11.970;2023-03-14T09:57:11;22.58;;;3.35;;
67063;SDS011;58476;48.072;11.970;2023-03-14T09:59:39;18.98;;;4.07;;
67063;SDS011;58476;48.072;11.970;2023-03-14T10:02:20;19.55;;;2.55;;
67063;SDS011;58476;48.072;11.970;2023-03-14T10:04:48;23.95;;;2.20;;
67063;SDS011;58476;48.072;11.970;2023-03-14T10:07:16;24.15;;;2.20;;
67063;SDS011;58476;48.072;11.970;2023-03-14T10:09:44;21.85;;;2.38;;
67063;SDS011;58476;48.072;11.970;2023-03-14T10:12:12;22.60;;;2.55;;
67063;SDS011;58476;48.072;11.970;2023-03-14T10:14:44;20.42;;;2.58;;
67063;SDS011;58476;48.072;11.970;2023-03-14T10:17:12;22.08;;;2.40;;
67063;SDS011;58476;48.072;11.970;2023-03-14T10:22:30;21.42;;;2.60;;
67063;SDS011;58476;48.072;11.970;2023-03-14T10:24:57;12.88;;;3.03;;
67063;SDS011;58476;48.072;11.970;2023-03-14T10:27:44;18.17;;;2.63;;
67063;SDS011;58476;48.072;11.970;2023-03-14T10:30:14;15.60;;;2.03;;
67063;SDS011;58476;48.072;11.970;2023-03-14T10:32:55;11.13;;;2.20;;
67063;SDS011;58476;48.072;11.970;2023-03-14T10:35:21;19.33;;;2.25;;
67063;SDS011;58476;48.072;11.970;2023-03-14T10:37:51;15.07;;;2.70;;
67063;SDS011;58476;48.072;11.970;2023-03-14T10:40:23;15.52;;;2.05;;
67063;SDS011;58476;48.072;11.970;2023-03-14T10:42:52;14.27;;;2.50;;
67063;SDS011;58476;48.072;11.970;2023-03-14T10:45:36;17.60;;;2.05;;
67063;SDS011;58476;48.072;11.970;2023-03-14T10:48:16;16.58;;;2.67;;
67063;SDS011;58476;48.072;11.970;2023-03-14T10:50:48;18.90;;;1.90;;
67063;SDS011;58476;48.072;11.970;2023-03-14T10:53:18;11.68;;;2.17;;
67063;SDS011;58476;48.072;11.970;2023-03-14T10:55:44;10.80;;;2.13;;
67063;SDS011;58476;48.072;11.970;2023-03-14T10:58:23;10.98;;;1.60;;
67063;SDS011;58476;48.072;11.970;2023-03-14T11:03:33;12.27;;;1.83;;
67063;SDS011;58476;48.072;11.970;2023-03-14T11:08:57;10.15;;;2.03;;
67063;SDS011;58476;48.072;11.970;2023-03-14T11:11:35;10.80;;;1.50;;
67063;SDS011;58476;48.072;11.970;2023-03-14T11:16:46;9.00;;;1.67;;
67063;SDS011;58476;48.072;11.970;2023-03-14T11:19:45;10.52;;;1.30;;
67063;SDS011;58476;48.072;11.970;2023-03-14T11:24:49;9.90;;;1.58;;
67063;SDS011;58476;48.072;11.970;2023-03-14T11:30:05;6.80;;;1.30;;
67063;SDS011;58476;48.072;11.970;2023-03-14T11:35:59;4.75;;;1.13;;
67063;SDS011;58476;48.072;11.970;2023-03-14T11:41:14;11.05;;;1.30;;
67063;SDS011;58476;48.072;11.970;2023-03-14T11:43:46;7.75;;;1.20;;
67063;SDS011;58476;48.072;11.970;2023-03-14T11:51:56;6.78;;;1.20;;
67063;SDS011;58476;48.072;11.970;2023-03-14T11:54:33;6.25;;;2.08;;
67063;SDS011;58476;48.072;11.970;2023-03-14T11:57:01;5.57;;;1.52;;
67063;SDS011;58476;48.072;11.970;2023-03-14T12:02:10;3.60;;;1.30;;
67063;SDS011;58476;48.072;11.970;2023-03-14T12:04:50;5.68;;;1.25;;
67063;SDS011;58476;48.072;11.970;2023-03-14T12:07:20;1.65;;;0.80;;
67063;SDS011;58476;48.072;11.970;2023-03-14T12:09:50;6.15;;;0.88;;
67063;SDS011;58476;48.072;11.970;2023-03-14T12:12:19;7.60;;;1.10;;
67063;SDS011;58476;48.072;11.970;2023-03-14T12:14:54;6.68;;;1.15;;
67063;SDS011;58476;48.072;11.970;2023-03-14T12:17:24;3.08;;;1.15;;
67063;SDS011;58476;48.072;11.970;2023-03-14T12:20:04;14.68;;;1.30;;
67063;SDS011;58476;48.072;11.970;2023-03-14T12:22:55;4.28;;;1.10;;
67063;SDS011;58476;48.072;11.970;2023-03-14T12:25:27;5.72;;;1.80;;
67063;SDS011;58476;48.072;11.970;2023-03-14T12:30:27;9.80;;;2.75;;
67063;SDS011;58476;48.072;11.970;2023-03-14T12:35:41;8.13;;;3.03;;
67063;SDS011;58476;48.072;11.970;2023-03-14T12:43:45;7.63;;;1.98;;
67063;SDS011;58476;48.072;11.970;2023-03-14T12:48:49;3.67;;;1.60;;
67063;SDS011;58476;48.072;11.970;2023-03-14T12:51:19;5.50;;;1.60;;
67063;SDS011;58476;48.072;11.970;2023-03-14T12:54:00;7.78;;;1.40;;
67063;SDS011;58476;48.072;11.970;2023-03-14T13:02:02;5.25;;;1.15;;
67063;SDS011;58476;48.072;11.970;2023-03-14T13:04:44;17.70;;;1.27;;
67063;SDS011;58476;48.072;11.970;2023-03-14T13:07:33;3.67;;;0.90;;
67063;SDS011;58476;48.072;11.970;2023-03-14T13:10:03;23.08;;;1.77;;
67063;SDS011;58476;48.072;11.970;2023-03-14T13:12:30;4.82;;;1.10;;
67063;SDS011;58476;48.072;11.970;2023-03-14T13:15:02;2.53;;;1.00;;
67063;SDS011;58476;48.072;11.970;2023-03-14T13:17:39;3.80;;;0.98;;
67063;SDS011;58476;48.072;11.970;2023-03-14T13:22:54;10.15;;;2.05;;
67063;SDS011;58476;48.072;11.970;2023-03-14T13:25:20;9.32;;;1.90;;
67063;SDS011;58476;48.072;11.970;2023-03-14T13:27:45;6.38;;;1.63;;
67063;SDS011;58476;48.072;11.970;2023-03-14T13:30:25;9.90;;;1.65;;
67063;SDS011;58476;48.072;11.970;2023-03-14T13:33:02;8.27;;;1.92;;
67063;SDS011;58476;48.072;11.970;2023-03-14T13:35:29;6.72;;;1.17;;
67063;SDS011;58476;48.072;11.970;2023-03-14T13:38:04;4.63;;;0.85;;
67063;SDS011;58476;48.072;11.970;2023-03-14T13:40:32;10.52;;;1.88;;
67063;SDS011;58476;48.072;11.970;2023-03-14T13:43:00;3.85;;;1.17;;
67063;SDS011;58476;48.072;11.970;2023-03-14T13:45:28;3.90;;;0.88;;
67063;SDS011;58476;48.072;11.970;2023-03-14T13:47:53;4.78;;;1.10;;
67063;SDS011;58476;48.072;11.970;2023-03-14T13:50:19;10.32;;;1.70;;
67063;SDS011;58476;48.072;11.970;2023-03-14T13:52:44;7.03;;;1.40;;
67063;SDS011;58476;48.072;11.970;2023-03-14T13:55:14;12.52;;;2.38;;
67063;SDS011;58476;48.072;11.970;2023-03-14T13:57:54;11.77;;;2.92;;
67063;SDS011;58476;48.072;11.970;2023-03-14T14:00:23;12.27;;;2.00;;
67063;SDS011;58476;48.072;11.970;2023-03-14T14:02:50;15.18;;;2.38;;
67063;SDS011;58476;48.072;11.970;2023-03-14T14:05:16;13.82;;;1.75;;
67063;SDS011;58476;48.072;11.970;2023-03-14T14:07:42;11.93;;;2.15;;
67063;SDS011;58476;48.072;11.970;2023-03-14T14:10:10;10.95;;;2.00;;
67063;SDS011;58476;48.072;11.970;2023-03-14T14:12:48;14.73;;;2.78;;
67063;SDS011;58476;48.072;11.970;2023-03-14T14:15:26;11.82;;;2.35;;
67063;SDS011;58476;48.072;11.970;2023-03-14T14:22:50;12.68;;;2.40;;
67063;SDS011;58476;48.072;11.970;2023-03-14T14:25:16;8.23;;;1.75;;
67063;SDS011;58476;48.072;11.970;2023-03-14T14:27:43;11.40;;;2.03;;
67063;SDS011;58476;48.072;11.970;2023-03-14T14:32:43;9.77;;;2.20;;
67063;SDS011;58476;48.072;11.970;2023-03-14T14:35:17;10.27;;;2.03;;
67063;SDS011;58476;48.072;11.970;2023-03-14T14:37:48;10.02;;;1.60;;
67063;SDS011;58476;48.072;11.970;2023-03-14T14:40:18;9.15;;;2.65;;
67063;SDS011;58476;48.072;11.970;2023-03-14T14:42:46;12.80;;;1.92;;
67063;SDS011;58476;48.072;11.970;2023-03-14T14:45:13;13.07;;;1.83;;
67063;SDS011;58476;48.072;11.970;2023-03-14T14:47:52;10.68;;;1.52;;
67063;SDS011;58476;48.072;11.970;2023-03-14T14:50:21;11.13;;;2.15;;
67063;SDS011;58476;48.072;11.970;2023-03-14T14:52:56;5.93;;;1.38;;
67063;SDS011;58476;48.072;11.970;2023-03-14T14:55:22;8.95;;;1.48;;
67063;SDS011;58476;48.072;11.970;2023-03-14T14:57:49;10.05;;;2.42;;
67063;SDS011;58476;48.072;11.970;2023-03-14T15:00:20;7.65;;;1.33;;
67063;SDS011;58476;48.072;11.970;2023-03-14T15:02:50;15.02;;;1.70;;
67063;SDS011;58476;48.072;11.970;2023-03-14T15:05:20;6.72;;;1.42;;
67063;SDS011;58476;48.072;11.970;2023-03-14T15:07:47;10.85;;;1.65;;
67063;SDS011;58476;48.072;11.970;2023-03-14T15:10:13;6.70;;;1.60;;
67063;SDS011;58476;48.072;11.970;2023-03-14T15:12:41;9.65;;;1.73;;
67063;SDS011;58476;48.072;11.970;2023-03-14T15:15:07;8.75;;;1.55;;
67063;SDS011;58476;48.072;11.970;2023-03-14T15:17:33;8.73;;;1.35;;
67063;SDS011;58476;48.072;11.970;2023-03-14T15:19:58;8.45;;;1.63;;
67063;SDS011;58476;48.072;11.970;2023-03-14T15:22:24;6.35;;;2.30;;
67063;SDS011;58476;48.072;11.970;2023-03-14T15:24:49;5.35;;;1.35;;
67063;SDS011;58476;48.072;11.970;2023-03-14T15:27:15;9.40;;;1.67;;
67063;SDS011;58476;48.072;11.970;2023-03-14T15:29:42;4.40;;;1.73;;
67063;SDS011;58476;48.072;11.970;2023-03-14T15:32:09;7.10;;;1.10;;
67063;SDS011;58476;48.072;11.970;2023-03-14T15:34:36;6.95;;;1.17;;
67063;SDS011;58476;48.072;11.970;2023-03-14T15:37:02;6.20;;;1.52;;
67063;SDS011;58476;48.072;11.970;2023-03-14T15:39:27;6.72;;;1.02;;
67063;SDS011;58476;48.072;11.970;2023-03-14T15:41:52;8.57;;;1.13;;
67063;SDS011;58476;48.072;11.970;2023-03-14T15:44:18;5.25;;;1.13;;
67063;SDS011;58476;48.072;11.970;2023-03-14T15:46:43;5.30;;;1.13;;
67063;SDS011;58476;48.072;11.970;2023-03-14T15:49:08;1.83;;;0.60;;
67063;SDS011;58476;48.072;11.970;2023-03-14T15:51:34;9.55;;;1.23;;
67063;SDS011;58476;48.072;11.970;2023-03-14T15:54:00;2.80;;;1.00;;
67063;SDS011;58476;48.072;11.970;2023-03-14T15:56:25;8.25;;;0.88;;
67063;SDS011;58476;48.072;11.970;2023-03-14T15:58:51;17.83;;;1.13;;